createdAt,value
2023-05-24T00:00:25.622Z,10.29
2023-05-24T00:04:54.878Z,10.29
2023-05-24T00:05:52.726Z,10.29
2023-05-24T00:11:03.022Z,10.29
2023-05-24T00:16:47.806Z,10.29
2023-05-24T00:22:30.369Z,10.29
2023-05-24T00:28:08.288Z,10.29
2023-05-24T00:33:34.266Z,10.29
2023-05-24T00:40:23.289Z,10.29
2023-05-24T00:43:59.450Z,10.29
2023-05-24T00:49:35.678Z,10.29
2023-05-24T00:54:28.235Z,10.29
2023-05-24T01:00:19.560Z,10.29
2023-05-24T01:05:58.523Z,10.29
2023-05-24T01:16:19.433Z,10.29
2023-05-24T01:21:20.338Z,10.29
2023-05-24T01:27:06.418Z,10.29
2023-05-24T01:32:20.563Z,10.29
2023-05-24T01:37:43.290Z,10.29
2023-05-24T01:43:04.916Z,10.29
2023-05-24T01:48:17.852Z,10.29
2023-05-24T01:53:32.200Z,10.29
2023-05-24T01:58:40.088Z,10.29
2023-05-24T02:04:28.738Z,10.29
2023-05-24T02:10:47.749Z,10.29
2023-05-24T02:16:34.778Z,10.29
2023-05-24T02:21:51.223Z,10.29
2023-05-24T02:27:42.876Z,10.29
2023-05-24T02:34:41.766Z,10.29
2023-05-24T02:38:15.980Z,10.29
2023-05-24T02:43:23.879Z,10.29
2023-05-24T02:48:40.578Z,10.29
2023-05-24T02:53:51.600Z,10.29
2023-05-24T02:59:05.408Z,10.29
2023-05-24T03:04:13.342Z,10.29
2023-05-24T03:09:41.460Z,10.29
2023-05-24T03:16:39.180Z,9.39
2023-05-24T03:20:09.532Z,10.29
2023-05-24T03:25:17.675Z,10.29
2023-05-24T03:31:15.836Z,10.29
2023-05-24T03:35:57.351Z,10.29
2023-05-24T03:41:38.611Z,10.29
2023-05-24T03:46:58.282Z,10.29
2023-05-24T03:52:24.974Z,10.29
2023-05-24T03:57:57.625Z,10.29
2023-05-24T04:03:27.216Z,10.29
2023-05-24T04:09:09.815Z,10.29
2023-05-24T04:15:02.297Z,10.29
2023-05-24T04:20:12.643Z,10.29
2023-05-24T04:25:21.028Z,10.29
2023-05-24T04:30:44.212Z,10.29
2023-05-24T04:35:58.908Z,10.29
2023-05-24T04:41:17.986Z,10.29
2023-05-24T04:46:25.792Z,10.29
2023-05-24T04:51:38.970Z,10.29
2023-05-24T04:56:44.720Z,10.29
2023-05-24T05:02:11.628Z,10.29
2023-05-24T05:07:21.854Z,10.29
2023-05-24T05:13:54.518Z,10.29
2023-05-24T05:18:26.093Z,10.29
2023-05-24T05:22:50.556Z,10.29
2023-05-24T05:34:41.775Z,10.29
2023-05-24T05:34:43.687Z,10.29
2023-05-24T05:39:10.530Z,10.29
2023-05-24T05:44:34.301Z,10.65
2023-05-24T05:50:15.717Z,9.74
2023-05-24T05:55:35.121Z,9.74
2023-05-24T06:01:51.060Z,9.74
2023-05-24T06:15:46.724Z,9.74
2023-05-24T06:17:22.709Z,9.74
2023-05-24T06:23:05.001Z,9.74
2023-05-24T06:29:02.278Z,9.74
2023-05-24T06:34:47.958Z,9.74
2023-05-24T06:40:41.016Z,9.74
2023-05-24T06:46:26.200Z,9.74
2023-05-24T06:53:30.584Z,9.74
2023-05-24T06:58:29.970Z,9.74
2023-05-24T07:04:17.584Z,9.74
2023-05-24T07:10:19.063Z,9.74
2023-05-24T07:15:45.026Z,9.74
2023-05-24T07:21:47.436Z,9.74
2023-05-24T07:27:39.012Z,9.74
2023-05-24T07:32:57.811Z,9.74
2023-05-24T07:45:26.505Z,9.74
2023-05-24T07:51:53.554Z,9.74
2023-05-24T07:57:19.437Z,9.74
2023-05-24T08:13:48.624Z,9.74
2023-05-24T08:19:31.998Z,9.74
2023-05-24T08:37:05.697Z,9.74
2023-05-24T08:43:03.272Z,9.74
2023-05-24T08:54:33.280Z,9.74
2023-05-24T09:01:04.793Z,9.74
2023-05-24T09:06:02.709Z,9.74
2023-05-24T09:11:46.688Z,9.74
2023-05-24T09:17:00.142Z,9.74
2023-05-24T09:22:44.290Z,9.74
2023-05-24T09:28:23.020Z,9.74
2023-05-24T09:33:48.962Z,9.74
2023-05-24T09:45:35.341Z,9.74
2023-05-24T09:51:19.878Z,9.74
2023-05-24T09:57:21.874Z,9.74
2023-05-24T10:03:14.095Z,9.74
2023-05-24T10:14:43.889Z,9.39
2023-05-24T10:25:16.613Z,9.39
2023-05-24T10:30:57.075Z,9.39
2023-05-24T10:36:42.064Z,9.39
2023-05-24T10:42:28.906Z,9.39
2023-05-24T10:47:38.903Z,9.39
2023-05-24T10:59:02.805Z,9.39
2023-05-24T11:04:48.693Z,9.39
2023-05-24T11:13:09.472Z,9.74
2023-05-24T11:15:55.397Z,9.74
2023-05-24T11:21:41.099Z,8.84
2023-05-24T11:27:30.358Z,8.49
2023-05-24T11:39:17.148Z,8.49
2023-05-24T11:45:21.222Z,8.49
2023-05-24T11:56:05.389Z,8.49
2023-05-24T12:01:50.456Z,8.49
2023-05-24T12:07:35.629Z,8.49
2023-05-24T12:13:16.080Z,8.49
2023-05-24T12:25:19.638Z,8.49
2023-05-24T12:31:03.158Z,8.49
2023-05-24T12:37:00.781Z,8.49
2023-05-24T12:42:45.089Z,9.03
2023-05-24T12:48:35.182Z,9.03
2023-05-24T12:54:21.224Z,8.14
2023-05-24T13:00:04.958Z,8.14
2023-05-24T13:05:55.329Z,8.49
2023-05-24T13:11:36.552Z,8.49
2023-05-24T13:16:53.280Z,8.14
2023-05-24T13:22:21.655Z,8.49
2023-05-24T13:29:34.361Z,8.49
2023-05-24T13:32:46.835Z,8.49
2023-05-24T13:38:06.714Z,8.49
2023-05-24T13:43:17.222Z,8.49
2023-05-24T13:48:36.227Z,8.49
2023-05-24T13:59:40.357Z,8.14
2023-05-24T14:10:46.338Z,8.14
2023-05-24T14:16:27.319Z,8.14
2023-05-24T14:22:09.708Z,8.14
2023-05-24T14:32:55.125Z,8.14
2023-05-24T14:49:53.194Z,8.14
2023-05-24T14:54:27.792Z,8.14
2023-05-24T15:00:07.173Z,8.14
2023-05-24T15:05:32.365Z,8.14
2023-05-24T15:10:59.116Z,8.14
2023-05-24T15:16:03.318Z,8.14
2023-05-24T15:22:05.814Z,9.03
2023-05-24T15:27:13.743Z,9.03
2023-05-24T15:32:57.574Z,8.14
2023-05-24T15:38:42.446Z,8.14
2023-05-24T15:44:02.816Z,8.14
2023-05-24T15:49:15.184Z,8.14
2023-05-24T15:58:54.682Z,8.14
2023-05-24T16:01:55.339Z,8.14
2023-05-24T16:05:04.751Z,9.03
2023-05-24T16:12:08.285Z,9.03
2023-05-24T16:15:26.739Z,8.14
2023-05-24T16:20:40.976Z,8.14
2023-05-24T16:25:53.026Z,8.14
2023-05-24T16:31:01.040Z,8.14
2023-05-24T16:36:34.120Z,8.14
2023-05-24T16:41:32.585Z,8.14
2023-05-24T16:46:40.285Z,8.14
2023-05-24T16:51:52.463Z,8.14
2023-05-24T16:57:35.778Z,8.14
2023-05-24T17:02:49.553Z,8.14
2023-05-24T17:07:57.092Z,8.14
2023-05-24T17:13:11.239Z,8.14
2023-05-24T17:18:40.906Z,8.14
2023-05-24T17:24:04.982Z,8.14
2023-05-24T17:29:50.808Z,8.14
2023-05-24T17:35:06.011Z,8.14
2023-05-24T17:41:01.057Z,8.14
2023-05-24T17:46:04.828Z,7.24
2023-05-24T17:51:12.841Z,7.59
2023-05-24T17:56:20.470Z,7.59
2023-05-24T18:01:28.437Z,7.77
2023-05-24T18:06:36.451Z,7.77
2023-05-24T18:11:44.552Z,7.77
2023-05-24T18:16:52.316Z,7.40
2023-05-24T18:22:01.052Z,7.40
2023-05-24T18:27:08.939Z,7.02
2023-05-24T18:32:16.766Z,7.02
2023-05-24T18:37:24.504Z,7.02
2023-05-24T18:42:32.320Z,7.02
2023-05-24T18:47:40.043Z,7.02
2023-05-24T18:52:47.850Z,7.02
2023-05-24T18:57:55.753Z,6.63
2023-05-24T19:03:03.554Z,7.52
2023-05-24T19:08:11.480Z,7.52
2023-05-24T19:13:19.320Z,7.12
2023-05-24T19:18:27.039Z,7.12
2023-05-24T19:23:34.783Z,7.12
2023-05-24T19:28:42.569Z,7.12
2023-05-24T19:34:00.072Z,7.12
2023-05-24T19:38:58.367Z,7.12
2023-05-24T19:44:05.733Z,6.71
2023-05-24T19:49:13.275Z,6.71
2023-05-24T19:54:41.646Z,7.59
2023-05-24T19:59:33.432Z,8.00
2023-05-24T20:04:48.977Z,8.00
2023-05-24T20:09:59.111Z,8.00
2023-05-24T20:15:13.007Z,8.00
2023-05-24T20:20:18.159Z,8.00
2023-05-24T20:25:29.756Z,8.00
2023-05-24T20:30:46.741Z,8.00
2023-05-24T20:36:01.084Z,8.00
2023-05-24T20:41:11.178Z,8.89
2023-05-24T20:46:25.472Z,8.89
2023-05-24T20:51:32.648Z,8.47
2023-05-24T20:57:15.053Z,8.47
2023-05-24T21:02:59.922Z,8.47
2023-05-24T21:08:13.560Z,8.47
2023-05-24T21:13:28.348Z,8.47
2023-05-24T21:18:42.572Z,8.47
2023-05-24T21:23:50.324Z,8.47
2023-05-24T21:28:57.789Z,8.47
2023-05-24T21:34:05.347Z,8.47
2023-05-24T21:39:12.671Z,9.35
2023-05-24T21:44:20.091Z,9.35
2023-05-24T21:49:27.538Z,9.35
2023-05-24T21:54:35.124Z,9.35
2023-05-24T21:59:47.261Z,9.35
2023-05-24T22:04:54.875Z,9.35
2023-05-24T22:10:43.952Z,9.35
2023-05-24T22:15:51.376Z,9.35
2023-05-24T22:21:38.705Z,9.35
2023-05-24T22:27:21.117Z,9.35
2023-05-24T22:32:38.875Z,9.35
2023-05-24T22:39:04.684Z,8.92
2023-05-24T22:45:30.924Z,8.92
2023-05-24T22:49:29.671Z,8.92
2023-05-24T22:55:12.798Z,8.92
2023-05-24T23:00:55.132Z,8.92
2023-05-24T23:06:42.849Z,8.92
2023-05-24T23:13:23.523Z,9.35
2023-05-24T23:18:24.133Z,9.35
2023-05-24T23:30:03.300Z,9.35
2023-05-24T23:35:43.805Z,9.35
2023-05-24T23:41:41.245Z,9.35
2023-05-24T23:47:39.388Z,8.47
2023-05-24T23:58:36.531Z,8.47
